Tuesday, January 22, 2019, 8:58 PM GMT
Back to Local

CWNQ, Nicolet Automatic Weather Reporting System

Location: , , Canada Lat: 46.217
Local Time: 8:58 PM GMT (20:58 GMT) Lon: -72.65
Time Zone: GMT Elev: 32 ft

Show me the last for .
Show Coded

Time T Td Feel RH Dir Speed Gust Alt SLP Vis Weather Sky Remarks
2019-01-22 20:00 0 -13 -14 51 210° 8 - - 30.56 0 None
2019-01-22 19:00 -1 -13 -16 54 220° 9 - - 30.57 0 None
2019-01-22 18:00 -1 -14 -17 52 210° 9 - - 30.58 0 None
2019-01-22 17:00 -3 -16 -21 55 220° 10 - - 30.59 0 None
2019-01-22 16:00 -3 -17 -14 49 220° 5 - - 30.58 0 None
2019-01-22 15:00 -7 -19 -18 55 210° 5 - - 30.60 0 None
2019-01-22 14:00 -11 -20 -20 62 220° 3 - - 30.58 0 None
2019-01-22 13:00 -13 -21 - 66 210° 2 - - 30.56 0 None
2019-01-22 12:00 -14 -22 - 65 220° 2 - - 30.53 0 None
2019-01-22 11:00 -14 -25 -26 56 240° 5 - - 30.50 0 None
2019-01-22 10:00 -11 -21 -21 61 270° 3 - - 30.47 0 None
2019-01-22 09:00 -4 -18 -18 51 300° 7 - - 30.42 0 None
2019-01-22 08:00 -3 -16 -17 53 290° 7 - - 30.39 0 None
2019-01-22 07:00 -4 -16 -18 53 290° 7 - - 30.35 0 None
2019-01-22 06:00 -3 -17 -16 52 310° 6 - - 30.31 0 None
2019-01-22 05:00 -2 -15 -16 53 310° 7 - - 30.28 0 None
2019-01-22 04:00 -1 -14 -16 52 320° 9 - - 30.24 0 None
2019-01-22 03:00 1 -14 -21 47 320° 13 20 - 30.20 0 Peak wind: 23 mph (20 kts) from 320° at 42 min
2019-01-22 02:00 2 -14 -19 45 320° 14 21 - 30.16 0 Peak wind: 25 mph (22 kts) from 310° at 15 min
2019-01-22 01:00 4 -13 -11 43 320° 9 - - 30.12 0 None
2019-01-22 00:00 4 -14 -16 41 330° 10 18 - 30.08 0 Peak wind: 23 mph (20 kts) from 310° at 42 min
2019-01-21 23:00 6 -10 -15 46 330° 12 21 - 30.04 0 Peak wind: 21 mph (19 kts) from 340° at 35 min
2019-01-21 22:00 6 -13 -16 41 330° 12 24 - 29.99 0 Peak wind: 24 mph (21 kts) from 320° at 59 min
2019-01-21 21:00 5 -13 -17 41 340° 14 26 - 29.95 0 Peak wind: 26 mph (23 kts) from 330° at 59 min

Support USWX by starting your Amazon purchase here.